Time;durP1;ratioP1;P1;durP2;ratioP2;P2;SDS_P1;SDS_P2;PMS_P1;PMS_P2;Temp;Humidity;BMP_temperature;BMP_pressure;BME280_temperature;BME280_humidity;BME280_pressure;Samples;Min_cycle;Max_cycle;Signal;HPM_P1;HPM_P2
2023/05/14 00:00:53;;;;;;;13.07;7.82;;;11.40;99.90;;;;;;5093727;28;20086;-84
2023/05/14 00:03:19;;;;;;;14.27;7.88;;;11.40;99.90;;;;;;5096527;28;20083;-84
2023/05/14 00:05:45;;;;;;;13.35;7.75;;;11.40;99.90;;;;;;5097770;28;20044;-84
2023/05/14 00:08:10;;;;;;;13.93;8.00;;;11.40;99.90;;;;;;5097672;28;20051;-84
2023/05/14 00:10:36;;;;;;;13.27;8.20;;;11.40;99.90;;;;;;5097472;28;20047;-84
2023/05/14 00:13:01;;;;;;;11.65;7.70;;;11.40;99.90;;;;;;5097494;28;20117;-84
2023/05/14 00:15:27;;;;;;;16.60;7.10;;;11.40;99.90;;;;;;5097472;28;20036;-84
2023/05/14 00:17:53;;;;;;;11.38;6.78;;;11.40;99.90;;;;;;5097503;28;20044;-84
2023/05/14 00:20:18;;;;;;;13.15;6.82;;;11.40;99.90;;;;;;5097439;28;20044;-84
2023/05/14 00:22:44;;;;;;;11.73;7.78;;;11.40;99.90;;;;;;5096294;28;20051;-84
2023/05/14 00:25:10;;;;;;;15.23;7.03;;;11.40;99.90;;;;;;5097197;28;20422;-84
2023/05/14 00:27:37;;;;;;;15.35;7.80;;;11.40;99.90;;;;;;5097325;28;20059;-84
2023/05/14 00:30:05;;;;;;;13.02;7.57;;;11.40;99.90;;;;;;5097085;28;20395;-84
2023/05/14 00:32:31;;;;;;;13.18;7.18;;;11.30;99.90;;;;;;5097164;28;20052;-84
2023/05/14 00:34:57;;;;;;;15.00;6.93;;;11.30;99.90;;;;;;5097422;28;20043;-84
2023/05/14 00:37:23;;;;;;;10.98;7.10;;;11.30;99.90;;;;;;5096134;28;20055;-84
2023/05/14 00:39:48;;;;;;;12.35;6.40;;;11.40;99.90;;;;;;5095867;28;20083;-84
2023/05/14 00:42:14;;;;;;;13.95;7.43;;;11.30;99.90;;;;;;5096857;28;20048;-84
2023/05/14 00:44:40;;;;;;;12.40;6.68;;;11.40;99.90;;;;;;5097056;28;20509;-84
2023/05/14 00:47:06;;;;;;;13.73;8.00;;;11.40;99.90;;;;;;5097193;28;20489;-84
2023/05/14 00:49:32;;;;;;;13.77;7.82;;;11.40;99.90;;;;;;5096918;28;20109;-84
2023/05/14 00:51:59;;;;;;;18.10;8.20;;;11.40;99.90;;;;;;5096893;28;20032;-84
2023/05/14 00:54:26;;;;;;;17.00;7.38;;;11.40;99.90;;;;;;5095937;28;20190;-85
2023/05/14 00:56:52;;;;;;;15.18;7.57;;;11.40;99.90;;;;;;5096651;28;20055;-84
2023/05/14 00:59:18;;;;;;;12.70;7.65;;;11.40;99.90;;;;;;5096657;28;20055;-84
2023/05/14 01:01:44;;;;;;;14.98;6.95;;;11.40;99.90;;;;;;5096683;28;20051;-84
2023/05/14 01:04:11;;;;;;;12.52;7.47;;;11.40;99.90;;;;;;5096743;28;20130;-84
2023/05/14 01:06:57;;;;;;;17.50;7.20;;;11.40;99.90;;;;;;5095349;28;20517;-85
2023/05/14 01:09:35;;;;;;;12.60;6.20;;;11.50;99.90;;;;;;5096300;28;20079;-84
2023/05/14 01:12:39;;;;;;;14.77;7.72;;;11.60;99.90;;;;;;5096465;28;20427;-84
2023/05/14 01:15:08;;;;;;;15.00;7.65;;;11.60;99.90;;;;;;5088585;28;20067;-84
2023/05/14 01:17:44;;;;;;;14.82;7.13;;;11.60;99.90;;;;;;5096197;28;20096;-84
2023/05/14 01:20:11;;;;;;;14.07;6.68;;;11.60;99.90;;;;;;5096289;28;20055;-84
2023/05/14 01:22:37;;;;;;;13.65;6.97;;;11.50;99.90;;;;;;5096267;28;20051;-84
2023/05/14 01:25:03;;;;;;;11.85;6.85;;;11.60;99.90;;;;;;5096167;28;20101;-84
2023/05/14 01:27:41;;;;;;;14.85;6.35;;;11.50;99.90;;;;;;5096082;28;20123;-84
2023/05/14 01:30:25;;;;;;;12.88;6.03;;;11.60;99.90;;;;;;5096274;28;20115;-84
2023/05/14 01:32:55;;;;;;;13.93;5.60;;;11.60;99.90;;;;;;5096326;28;20059;-85
2023/05/14 01:35:27;;;;;;;13.02;5.90;;;11.50;99.90;;;;;;5095081;28;20537;-84
2023/05/14 01:37:57;;;;;;;15.52;7.07;;;11.50;99.90;;;;;;5096018;28;20060;-84
2023/05/14 01:40:23;;;;;;;13.55;5.50;;;11.50;99.90;;;;;;5096013;28;20044;-84
2023/05/14 01:42:52;;;;;;;16.55;6.03;;;11.40;99.90;;;;;;5095794;28;20459;-84
2023/05/14 01:45:23;;;;;;;17.45;5.65;;;11.40;99.90;;;;;;5094841;28;20040;-84
2023/05/14 01:47:49;;;;;;;16.10;6.47;;;11.40;99.90;;;;;;5095696;28;20527;-84
2023/05/14 01:50:15;;;;;;;14.68;6.28;;;11.40;99.90;;;;;;5095798;28;20047;-84
2023/05/14 01:52:41;;;;;;;15.43;6.03;;;11.40;99.90;;;;;;5095553;28;20091;-84
2023/05/14 01:55:07;;;;;;;17.75;5.53;;;11.40;99.90;;;;;;5095518;28;20188;-84
2023/05/14 01:57:33;;;;;;;18.42;6.95;;;11.40;99.90;;;;;;5095564;28;20043;-84
2023/05/14 01:59:58;;;;;;;14.02;6.15;;;11.30;99.90;;;;;;5095793;28;20044;-84
2023/05/14 02:02:24;;;;;;;24.27;8.60;;;11.40;99.90;;;;;;5095554;28;20047;-84
2023/05/14 02:04:50;;;;;;;15.20;6.93;;;11.30;99.90;;;;;;5095528;28;20042;-84
2023/05/14 02:07:15;;;;;;;19.77;7.75;;;11.30;99.90;;;;;;5095281;28;20036;-84
2023/05/14 02:09:41;;;;;;;27.60;8.43;;;11.30;99.90;;;;;;5095174;28;20495;-84
2023/05/14 02:12:08;;;;;;;15.25;6.57;;;11.30;99.90;;;;;;5095310;28;20055;-84
2023/05/14 02:14:33;;;;;;;13.52;6.20;;;11.30;99.90;;;;;;5095228;28;20044;-84
2023/05/14 02:16:59;;;;;;;15.38;6.50;;;11.30;99.90;;;;;;5094235;28;20040;-84
2023/05/14 02:19:25;;;;;;;17.42;6.63;;;11.30;99.90;;;;;;5095236;28;20391;-84
2023/05/14 02:21:51;;;;;;;17.38;7.70;;;11.20;99.90;;;;;;5094783;28;20044;-85
2023/05/14 02:24:16;;;;;;;16.80;7.85;;;11.20;99.90;;;;;;5094782;28;20465;-84
2023/05/14 02:26:42;;;;;;;18.98;6.80;;;11.10;99.90;;;;;;5094442;28;20056;-84
2023/05/14 02:29:08;;;;;;;15.13;6.82;;;11.10;99.90;;;;;;5095168;28;20048;-84
2023/05/14 02:31:33;;;;;;;11.98;7.45;;;11.20;99.90;;;;;;5095014;28;20050;-84
2023/05/14 02:34:03;;;;;;;20.58;6.88;;;11.10;99.90;;;;;;5094977;28;20051;-84
2023/05/14 02:36:28;;;;;;;19.58;7.15;;;11.20;99.90;;;;;;5094667;28;20052;-85
2023/05/14 02:38:54;;;;;;;20.40;7.35;;;11.20;99.90;;;;;;5094862;28;20122;-84
2023/05/14 02:41:20;;;;;;;18.05;6.90;;;11.20;99.90;;;;;;5094602;28;20044;-84
2023/05/14 02:43:46;;;;;;;17.83;6.20;;;11.20;99.90;;;;;;5094702;28;20051;-85
2023/05/14 02:46:12;;;;;;;16.77;7.20;;;11.30;99.90;;;;;;5094795;28;20126;-84
2023/05/14 02:48:37;;;;;;;14.98;6.50;;;11.30;99.90;;;;;;5094402;28;20070;-85
2023/05/14 02:51:03;;;;;;;17.20;6.82;;;11.30;99.90;;;;;;5095174;28;20076;-84
2023/05/14 02:53:29;;;;;;;18.33;7.38;;;11.30;99.90;;;;;;5094433;28;20048;-85
2023/05/14 02:55:55;;;;;;;17.67;7.88;;;11.40;99.90;;;;;;5094432;28;20048;-84
2023/05/14 02:58:20;;;;;;;17.25;8.20;;;11.30;99.90;;;;;;5094405;28;20052;-84
2023/05/14 03:00:46;;;;;;;20.58;6.43;;;11.30;99.90;;;;;;5094404;28;20097;-83
2023/05/14 03:03:11;;;;;;;16.73;5.97;;;11.40;99.90;;;;;;5094454;28;20097;-84
2023/05/14 03:05:37;;;;;;;16.33;6.28;;;11.50;99.90;;;;;;5094370;28;20055;-84
2023/05/14 03:08:03;;;;;;;13.02;6.50;;;11.50;99.90;;;;;;5094135;28;20055;-84
2023/05/14 03:10:28;;;;;;;17.33;6.88;;;11.50;99.90;;;;;;5094187;28;20040;-83
2023/05/14 03:12:54;;;;;;;18.95;7.15;;;11.50;99.90;;;;;;5094391;28;20040;-83
2023/05/14 03:15:20;;;;;;;17.83;6.88;;;11.50;99.90;;;;;;5094228;28;20127;-83
2023/05/14 03:17:45;;;;;;;17.30;7.05;;;11.50;99.90;;;;;;5094152;28;20044;-84
2023/05/14 03:20:11;;;;;;;15.07;6.32;;;11.40;99.90;;;;;;5094083;28;20431;-84
2023/05/14 03:22:37;;;;;;;16.92;6.93;;;11.50;99.90;;;;;;5093901;28;20495;-84
2023/05/14 03:25:03;;;;;;;20.30;7.63;;;11.50;99.90;;;;;;5093866;28;20131;-84
2023/05/14 03:27:36;;;;;;;16.73;6.60;;;11.50;99.90;;;;;;5093847;28;20048;-84
2023/05/14 03:30:01;;;;;;;14.82;6.10;;;11.50;99.90;;;;;;5092897;28;20144;-84
2023/05/14 03:32:27;;;;;;;13.25;6.47;;;11.50;99.90;;;;;;5093859;28;20545;-84
2023/05/14 03:34:53;;;;;;;16.95;6.68;;;11.50;99.90;;;;;;5093744;28;20044;-84
2023/05/14 03:37:18;;;;;;;15.27;6.18;;;11.50;99.90;;;;;;5091466;28;20054;-85
2023/05/14 03:39:44;;;;;;;14.85;6.32;;;11.40;99.90;;;;;;5093365;28;20487;-84
2023/05/14 03:42:10;;;;;;;19.30;6.43;;;11.40;99.90;;;;;;5092501;28;20055;-84
2023/05/14 03:44:35;;;;;;;19.50;5.57;;;11.50;99.90;;;;;;5093413;28;20054;-84
2023/05/14 03:47:01;;;;;;;18.17;5.95;;;11.50;99.90;;;;;;5093559;28;20075;-85
2023/05/14 03:49:27;;;;;;;20.95;6.25;;;11.40;99.90;;;;;;5093684;28;20048;-84
2023/05/14 03:51:52;;;;;;;15.32;5.50;;;11.50;99.90;;;;;;5093407;28;20055;-84
2023/05/14 03:54:18;;;;;;;17.00;6.30;;;11.50;99.90;;;;;;5093434;28;20055;-84
2023/05/14 03:56:44;;;;;;;15.60;6.13;;;11.50;99.90;;;;;;5093390;28;20048;-84
2023/05/14 03:59:10;;;;;;;18.08;7.50;;;11.30;99.90;;;;;;5092206;28;20131;-84
2023/05/14 04:01:36;;;;;;;20.35;7.57;;;11.30;99.90;;;;;;5093355;28;20127;-84
2023/05/14 04:04:01;;;;;;;18.00;7.38;;;11.30;99.90;;;;;;5093289;28;20078;-84
2023/05/14 04:06:27;;;;;;;19.50;8.07;;;11.20;99.90;;;;;;5093541;28;20044;-84
2023/05/14 04:08:52;;;;;;;17.73;7.95;;;11.20;99.90;;;;;;5091916;28;20059;-84
2023/05/14 04:11:18;;;;;;;21.33;8.32;;;11.10;99.90;;;;;;5093223;28;20040;-84
2023/05/14 04:13:44;;;;;;;22.95;8.55;;;11.20;99.90;;;;;;5093455;28;20089;-84
2023/05/14 04:16:09;;;;;;;13.90;7.63;;;11.20;99.90;;;;;;5093353;28;20391;-84
2023/05/14 04:18:35;;;;;;;22.50;8.30;;;11.20;99.90;;;;;;5093185;28;20055;-84
2023/05/14 04:21:01;;;;;;;22.45;7.85;;;11.30;99.90;;;;;;5093402;28;20132;-84
2023/05/14 04:23:28;;;;;;;17.67;9.10;;;11.30;99.90;;;;;;5093126;28;20048;-84
2023/05/14 04:25:53;;;;;;;15.88;8.65;;;11.30;99.90;;;;;;5093010;28;20393;-83
2023/05/14 04:28:20;;;;;;;21.55;8.85;;;11.40;99.90;;;;;;5093234;28;20111;-84
2023/05/14 04:30:47;;;;;;;14.35;7.68;;;11.50;99.90;;;;;;5092066;28;20373;-84
2023/05/14 04:33:12;;;;;;;24.15;8.98;;;11.50;99.90;;;;;;5093014;28;20052;-84
2023/05/14 04:35:38;;;;;;;24.17;8.63;;;11.60;99.90;;;;;;5092980;28;20094;-84
2023/05/14 04:38:04;;;;;;;16.20;8.20;;;11.60;99.90;;;;;;5092965;28;20052;-84
2023/05/14 04:40:30;;;;;;;18.40;7.93;;;11.70;99.90;;;;;;5093254;28;20051;-84
2023/05/14 04:42:56;;;;;;;21.65;8.38;;;11.80;99.90;;;;;;5093034;28;20080;-84
2023/05/14 04:45:22;;;;;;;18.40;7.57;;;11.80;99.90;;;;;;5092878;28;20087;-84
2023/05/14 04:47:48;;;;;;;21.23;7.75;;;11.80;99.90;;;;;;5093133;28;20079;-84
2023/05/14 04:50:14;;;;;;;18.75;7.45;;;11.90;99.90;;;;;;5095729;28;20054;-84
2023/05/14 04:52:39;;;;;;;21.23;7.88;;;11.90;99.90;;;;;;5096695;28;20044;-84
2023/05/14 04:55:05;;;;;;;16.63;7.60;;;11.90;99.90;;;;;;5096610;28;20050;-84
2023/05/14 04:57:31;;;;;;;18.73;7.28;;;11.90;99.90;;;;;;5096577;28;20539;-84
2023/05/14 04:59:57;;;;;;;13.85;7.47;;;11.90;99.90;;;;;;5096411;28;20048;-84
2023/05/14 05:02:22;;;;;;;19.08;8.00;;;12.00;99.90;;;;;;5096510;28;20040;-84
2023/05/14 05:04:48;;;;;;;19.17;8.02;;;12.00;99.90;;;;;;5096577;28;20108;-84
2023/05/14 05:07:14;;;;;;;19.83;6.93;;;12.00;99.90;;;;;;5096413;28;20510;-84
2023/05/14 05:09:39;;;;;;;18.83;7.35;;;12.00;99.90;;;;;;5096778;28;20108;-84
2023/05/14 05:12:05;;;;;;;18.60;7.43;;;11.90;99.90;;;;;;5095265;28;20044;-84
2023/05/14 05:14:31;;;;;;;19.38;6.50;;;11.90;99.90;;;;;;5096343;28;20411;-84
2023/05/14 05:16:57;;;;;;;16.85;6.53;;;12.00;99.90;;;;;;5096408;28;20503;-85
2023/05/14 05:19:23;;;;;;;19.38;7.20;;;12.00;99.90;;;;;;5096365;28;20040;-84
2023/05/14 05:21:48;;;;;;;20.75;7.25;;;11.90;99.90;;;;;;5095048;28;20043;-84
2023/05/14 05:24:14;;;;;;;16.95;6.95;;;12.00;99.90;;;;;;5094980;28;20044;-84
2023/05/14 05:26:39;;;;;;;19.02;7.10;;;12.00;99.90;;;;;;5095833;28;20102;-85
2023/05/14 05:29:11;;;;;;;17.00;7.32;;;12.00;99.90;;;;;;5096163;28;20379;-84
2023/05/14 05:31:36;;;;;;;15.40;7.68;;;12.00;99.90;;;;;;5096092;28;20051;-83
2023/05/14 05:34:02;;;;;;;20.98;7.43;;;12.00;99.90;;;;;;5094848;28;20114;-84
2023/05/14 05:36:28;;;;;;;19.75;6.78;;;12.00;99.90;;;;;;5095938;28;20040;-84
2023/05/14 05:38:54;;;;;;;20.15;7.63;;;11.90;99.90;;;;;;5095975;28;20043;-83
2023/05/14 05:41:19;;;;;;;22.48;7.90;;;12.00;99.90;;;;;;5095782;28;20055;-84
2023/05/14 05:43:45;;;;;;;21.20;7.63;;;12.00;99.90;;;;;;5095647;28;20109;-84
2023/05/14 05:46:11;;;;;;;22.88;7.15;;;12.00;99.90;;;;;;5095587;28;20051;-83
2023/05/14 05:48:36;;;;;;;20.90;6.95;;;12.00;99.90;;;;;;5095497;28;20492;-83
2023/05/14 05:51:02;;;;;;;18.85;7.07;;;12.00;99.90;;;;;;5095767;28;20051;-83
2023/05/14 05:53:28;;;;;;;15.82;6.88;;;12.10;99.90;;;;;;5095530;28;20052;-83
2023/05/14 05:55:53;;;;;;;16.52;6.90;;;12.20;99.90;;;;;;5095511;28;20040;-83
2023/05/14 05:58:19;;;;;;;23.48;7.22;;;12.20;99.90;;;;;;5095507;28;20040;-83
2023/05/14 06:00:46;;;;;;;20.83;6.75;;;12.10;99.90;;;;;;5094369;28;20515;-83
2023/05/14 06:03:12;;;;;;;16.33;6.20;;;12.00;99.90;;;;;;5095520;28;20047;-83
2023/05/14 06:05:38;;;;;;;16.75;6.75;;;12.20;99.90;;;;;;5095286;28;20079;-83
2023/05/14 06:08:04;;;;;;;16.50;6.53;;;12.20;99.90;;;;;;5095132;28;20140;-83
2023/05/14 06:10:30;;;;;;;20.80;6.70;;;12.30;99.90;;;;;;5095108;28;20503;-84
2023/05/14 06:12:56;;;;;;;19.63;6.95;;;12.30;99.90;;;;;;5095066;28;20044;-85
2023/05/14 06:15:22;;;;;;;20.05;6.65;;;12.20;99.90;;;;;;5095041;28;20055;-84
2023/05/14 06:17:47;;;;;;;19.02;7.80;;;12.20;99.90;;;;;;5095072;28;20048;-84
2023/05/14 06:20:13;;;;;;;20.65;7.70;;;12.30;99.90;;;;;;5095184;28;20044;-83
2023/05/14 06:22:39;;;;;;;14.75;6.35;;;12.40;99.90;;;;;;5095100;28;20048;-83
2023/05/14 06:25:05;;;;;;;14.80;6.18;;;12.60;99.90;;;;;;5094825;28;20044;-82
2023/05/14 06:27:31;;;;;;;24.08;6.22;;;12.50;99.90;;;;;;5094673;28;20044;-83
2023/05/14 06:29:56;;;;;;;18.33;6.38;;;12.60;99.90;;;;;;5094721;28;20434;-83
2023/05/14 06:32:22;;;;;;;13.88;6.13;;;12.70;99.90;;;;;;5094815;28;20123;-82
2023/05/14 06:34:48;;;;;;;15.63;5.80;;;12.70;99.90;;;;;;5095109;28;20028;-82
2023/05/14 06:37:13;;;;;;;16.98;6.65;;;12.80;99.90;;;;;;5094536;28;20543;-83
2023/05/14 06:39:45;;;;;;;12.68;6.15;;;12.80;99.90;;;;;;5094715;28;20085;-82
2023/05/14 06:42:10;;;;;;;14.20;6.72;;;12.80;99.90;;;;;;5094600;28;20121;-80
2023/05/14 06:44:36;;;;;;;12.23;6.30;;;12.80;99.90;;;;;;5087857;28;20036;-83
2023/05/14 06:47:02;;;;;;;15.05;6.18;;;12.90;99.90;;;;;;5080460;28;20404;-81
2023/05/14 06:49:27;;;;;;;13.18;6.03;;;12.90;99.90;;;;;;5073929;28;20127;-81
2023/05/14 06:51:53;;;;;;;15.80;6.53;;;12.90;99.90;;;;;;5073931;28;20043;-83
2023/05/14 06:54:19;;;;;;;15.65;5.85;;;13.00;99.90;;;;;;5072809;28;20060;-81
2023/05/14 06:56:45;;;;;;;17.65;6.65;;;13.00;99.90;;;;;;5074066;28;20048;-81
2023/05/14 06:59:11;;;;;;;18.52;6.68;;;13.00;99.90;;;;;;5073811;28;20396;-84
2023/05/14 07:01:36;;;;;;;14.88;6.82;;;13.00;99.90;;;;;;5073693;28;20041;-80
2023/05/14 07:04:02;;;;;;;15.23;5.53;;;12.90;99.90;;;;;;5073644;28;20040;-81
2023/05/14 07:06:28;;;;;;;15.48;6.63;;;13.00;99.90;;;;;;5073770;28;20059;-82
2023/05/14 07:08:53;;;;;;;14.48;6.00;;;13.10;99.90;;;;;;5073577;28;20068;-79
2023/05/14 07:11:20;;;;;;;15.80;6.45;;;13.20;99.90;;;;;;5073604;28;20033;-78
2023/05/14 07:13:46;;;;;;;14.25;5.78;;;13.50;99.90;;;;;;5073458;28;20442;-79
2023/05/14 07:16:12;;;;;;;15.35;6.20;;;13.70;99.90;;;;;;5072271;28;20044;-80
2023/05/14 07:18:37;;;;;;;13.82;6.40;;;13.90;99.90;;;;;;5073663;28;20124;-79
2023/05/14 07:21:06;;;;;;;11.38;5.35;;;14.00;99.90;;;;;;5073658;28;20396;-79
2023/05/14 07:23:35;;;;;;;20.10;6.40;;;14.10;99.90;;;;;;5073554;28;20048;-78
2023/05/14 07:26:01;;;;;;;18.65;6.80;;;14.10;99.90;;;;;;5073113;28;20048;-78
2023/05/14 07:28:26;;;;;;;13.20;5.97;;;14.20;99.90;;;;;;5073252;28;20576;-79
2023/05/14 07:30:52;;;;;;;14.75;6.03;;;14.30;99.90;;;;;;5073173;28;20044;-78
2023/05/14 07:33:18;;;;;;;17.23;6.10;;;14.40;99.90;;;;;;5073388;28;20048;-79
2023/05/14 07:35:44;;;;;;;14.15;5.95;;;14.50;99.90;;;;;;5073506;28;20049;-79
2023/05/14 07:38:09;;;;;;;15.57;5.88;;;14.70;99.90;;;;;;5073087;28;20040;-83
2023/05/14 07:40:35;;;;;;;11.05;6.47;;;14.70;99.90;;;;;;5073470;28;20519;-80
2023/05/14 07:43:01;;;;;;;12.55;6.40;;;14.80;99.90;;;;;;5073503;28;20361;-84
2023/05/14 07:45:26;;;;;;;12.82;5.95;;;14.80;99.90;;;;;;5071823;28;20059;-81
2023/05/14 07:47:52;;;;;;;15.30;5.93;;;14.90;99.90;;;;;;5073081;28;20041;-81
2023/05/14 07:50:18;;;;;;;13.02;5.22;;;15.00;99.90;;;;;;5084606;28;20048;-82
2023/05/14 07:52:44;;;;;;;15.50;5.40;;;15.20;99.90;;;;;;5093413;28;20044;-83
2023/05/14 07:55:10;;;;;;;11.35;5.05;;;15.20;99.90;;;;;;5093205;28;20048;-82
2023/05/14 07:57:36;;;;;;;10.85;5.28;;;15.40;99.90;;;;;;5091921;28;20399;-82
2023/05/14 08:00:03;;;;;;;10.82;5.50;;;15.50;99.90;;;;;;5093143;28;20475;-82
2023/05/14 08:02:29;;;;;;;14.32;5.35;;;15.60;99.90;;;;;;5093306;28;20047;-81
2023/05/14 08:04:54;;;;;;;12.77;4.70;;;15.60;99.90;;;;;;5093245;28;20047;-80
2023/05/14 08:07:20;;;;;;;14.70;5.07;;;15.60;99.90;;;;;;5092158;28;20048;-81
2023/05/14 08:09:46;;;;;;;12.93;5.45;;;15.80;99.90;;;;;;5093277;28;20113;-81
2023/05/14 08:12:11;;;;;;;11.27;5.10;;;15.90;99.90;;;;;;5093422;28;20043;-81
2023/05/14 08:14:37;;;;;;;12.43;5.65;;;16.00;99.90;;;;;;5093391;28;20380;-81
2023/05/14 08:17:03;;;;;;;14.82;5.78;;;16.00;99.90;;;;;;5093281;28;20032;-80
2023/05/14 08:19:29;;;;;;;13.15;5.65;;;16.10;99.90;;;;;;5093061;28;20066;-80
2023/05/14 08:21:55;;;;;;;11.98;6.18;;;16.10;99.90;;;;;;5093303;28;20044;-81
2023/05/14 08:24:20;;;;;;;13.68;4.97;;;16.10;99.90;;;;;;5095722;28;20057;-81
2023/05/14 08:26:46;;;;;;;13.65;5.65;;;16.30;99.90;;;;;;5096965;28;20396;-82
2023/05/14 08:29:12;;;;;;;14.52;5.32;;;16.40;99.90;;;;;;5097139;28;20048;-81
2023/05/14 08:31:37;;;;;;;12.52;5.32;;;16.50;99.90;;;;;;5095707;28;20075;-81
2023/05/14 08:34:03;;;;;;;13.80;6.03;;;16.50;99.90;;;;;;5095702;28;20055;-81
2023/05/14 08:36:29;;;;;;;15.70;5.63;;;16.60;99.90;;;;;;5095593;28;20044;-79
2023/05/14 08:38:54;;;;;;;18.02;5.60;;;16.80;99.90;;;;;;5096724;28;20040;-81
2023/05/14 08:41:20;;;;;;;15.32;5.88;;;17.00;99.90;;;;;;5096991;28;20542;-81
2023/05/14 08:44:00;;;;;;;13.18;5.30;;;17.10;99.90;;;;;;5096899;28;20055;-81
2023/05/14 08:46:28;;;;;;;9.82;5.65;;;16.80;99.90;;;;;;5096651;28;20511;-81
2023/05/14 08:49:03;;;;;;;12.57;6.22;;;16.50;99.90;;;;;;5096551;28;20131;-81
2023/05/14 08:51:30;;;;;;;11.98;5.70;;;16.80;99.90;;;;;;5096884;28;20059;-81
2023/05/14 08:54:01;;;;;;;14.07;6.00;;;16.90;99.90;;;;;;5096652;28;20056;-80
2023/05/14 08:56:27;;;;;;;13.15;6.18;;;16.80;99.90;;;;;;5096796;28;20040;-81
2023/05/14 08:58:53;;;;;;;11.52;5.88;;;16.60;99.90;;;;;;5095550;28;20048;-81
2023/05/14 09:01:19;;;;;;;14.77;6.07;;;16.60;99.90;;;;;;5096323;28;20365;-80
2023/05/14 09:03:46;;;;;;;14.07;6.55;;;16.70;99.90;;;;;;5096537;28;20043;-81
2023/05/14 09:06:13;;;;;;;12.57;6.03;;;16.60;99.90;;;;;;5095026;28;20051;-81
2023/05/14 09:08:39;;;;;;;12.50;6.47;;;16.80;99.90;;;;;;5096231;28;20056;-80
2023/05/14 09:11:05;;;;;;;15.32;6.20;;;16.90;99.90;;;;;;5096378;28;20094;-80
2023/05/14 09:13:31;;;;;;;14.40;6.80;;;16.90;99.90;;;;;;5096246;28;20052;-80
2023/05/14 09:15:58;;;;;;;13.15;6.90;;;17.00;99.90;;;;;;5096101;28;20387;-81
2023/05/14 09:18:24;;;;;;;13.13;6.28;;;17.10;99.90;;;;;;5094960;28;20040;-80
2023/05/14 09:20:51;;;;;;;13.70;7.47;;;17.30;99.90;;;;;;5096270;28;20048;-80
2023/05/14 09:23:16;;;;;;;13.32;6.50;;;17.50;99.90;;;;;;5094705;28;20048;-80
2023/05/14 09:25:42;;;;;;;12.90;7.50;;;17.50;99.90;;;;;;5095874;28;20116;-81
2023/05/14 09:28:08;;;;;;;13.10;6.90;;;17.40;99.90;;;;;;5094554;28;20052;-80
2023/05/14 09:30:35;;;;;;;12.82;7.10;;;17.50;99.90;;;;;;5128505;27;20090;-80
2023/05/14 09:33:02;;;;;;;12.68;6.28;;;17.60;99.90;;;;;;5095981;28;20040;-80
2023/05/14 09:35:28;;;;;;;10.57;6.55;;;17.40;99.90;;;;;;5095895;28;20064;-80
2023/05/14 09:37:54;;;;;;;11.98;6.75;;;17.30;99.90;;;;;;5095659;28;20079;-80
2023/05/14 09:40:21;;;;;;;13.18;7.32;;;17.50;99.90;;;;;;5095926;28;20040;-81
2023/05/14 09:42:48;;;;;;;12.63;6.80;;;17.60;99.90;;;;;;5095539;28;20044;-82
2023/05/14 09:45:14;;;;;;;13.38;7.68;;;17.50;99.90;;;;;;5095898;28;20124;-82
2023/05/14 09:47:40;;;;;;;17.67;7.63;;;17.50;99.90;;;;;;5095342;28;20118;-82
2023/05/14 09:50:06;;;;;;;14.60;6.78;;;17.50;99.90;;;;;;5095433;28;20048;-83
2023/05/14 09:52:32;;;;;;;13.10;7.32;;;17.70;99.90;;;;;;5095398;28;20083;-82
2023/05/14 09:54:59;;;;;;;11.73;6.82;;;17.90;99.90;;;;;;5095413;28;20141;-82
2023/05/14 09:57:25;;;;;;;14.95;7.43;;;17.60;99.90;;;;;;5095350;28;20483;-82
2023/05/14 09:59:52;;;;;;;18.17;7.32;;;17.70;99.90;;;;;;5094316;28;20040;-82
2023/05/14 10:02:25;;;;;;;11.30;6.85;;;17.60;99.90;;;;;;5094180;28;20059;-82
2023/05/14 10:04:53;;;;;;;14.23;7.28;;;17.70;99.90;;;;;;5095332;28;20084;-82
2023/05/14 10:07:25;;;;;;;13.32;7.45;;;17.30;99.90;;;;;;5095260;28;20037;-82
2023/05/14 10:10:00;;;;;;;16.73;7.68;;;17.30;99.90;;;;;;5095111;28;20032;-82
2023/05/14 10:12:29;;;;;;;10.90;7.13;;;17.30;99.90;;;;;;5095143;28;20047;-78
2023/05/14 10:14:59;;;;;;;14.15;7.30;;;17.20;99.90;;;;;;5095115;28;20050;-82
2023/05/14 10:17:30;;;;;;;14.93;7.90;;;17.50;99.90;;;;;;5095036;28;20062;-82
2023/05/14 10:19:58;;;;;;;14.50;7.55;;;17.60;99.90;;;;;;5095162;28;20121;-81
2023/05/14 10:22:29;;;;;;;15.55;8.45;;;17.70;99.90;;;;;;5093537;28;20055;-81
2023/05/14 10:24:55;;;;;;;22.98;9.45;;;17.40;99.90;;;;;;5093702;28;20048;-77
2023/05/14 10:27:21;;;;;;;16.70;9.07;;;17.20;99.90;;;;;;5094941;28;20097;-77
2023/05/14 10:29:54;;;;;;;19.17;8.98;;;17.30;99.90;;;;;;5094856;28;20048;-79
2023/05/14 10:32:24;;;;;;;17.52;9.18;;;17.80;99.90;;;;;;5093610;28;20040;-79
2023/05/14 10:34:51;;;;;;;15.35;8.38;;;17.70;99.90;;;;;;5093597;28;20124;-82
2023/05/14 10:37:29;;;;;;;12.40;8.30;;;17.70;99.90;;;;;;5093543;28;20040;-79
2023/05/14 10:40:01;;;;;;;13.68;9.75;;;17.80;99.90;;;;;;5094745;28;20032;-77
2023/05/14 10:42:38;;;;;;;15.98;9.75;;;18.00;99.90;;;;;;5094708;28;20055;-77
2023/05/14 10:45:11;;;;;;;16.05;9.40;;;18.40;99.90;;;;;;5094637;28;20384;-78
2023/05/14 10:47:39;;;;;;;14.95;8.73;;;18.10;99.90;;;;;;5092818;28;20047;-78
2023/05/14 10:50:07;;;;;;;12.40;7.88;;;18.10;99.90;;;;;;5094165;28;20055;-78
2023/05/14 10:52:34;;;;;;;16.17;9.63;;;17.90;99.90;;;;;;5093186;28;20511;-77
2023/05/14 10:55:02;;;;;;;18.55;10.25;;;18.10;99.90;;;;;;5094357;28;20040;-76
2023/05/14 10:57:30;;;;;;;18.90;8.70;;;18.00;99.90;;;;;;5093078;28;20044;-77
2023/05/14 10:59:58;;;;;;;16.15;9.63;;;18.20;99.90;;;;;;5094305;28;20044;-82
2023/05/14 11:02:27;;;;;;;12.02;9.15;;;18.40;99.90;;;;;;5094240;28;20055;-78
2023/05/14 11:04:56;;;;;;;15.10;10.02;;;18.30;99.90;;;;;;5092728;28;20076;-77
2023/05/14 11:07:59;;;;;;;15.63;9.07;;;18.10;99.90;;;;;;5092656;28;20190;-78
2023/05/14 11:10:28;;;;;;;18.58;9.57;;;18.20;99.90;;;;;;5088992;28;20449;-76
2023/05/14 11:12:55;;;;;;;15.80;9.88;;;18.20;99.90;;;;;;5092577;28;20059;-76
2023/05/14 11:15:23;;;;;;;12.30;9.48;;;18.20;99.90;;;;;;5093551;28;20043;-77
2023/05/14 11:17:50;;;;;;;12.30;8.73;;;18.70;99.90;;;;;;5092536;28;20052;-77
2023/05/14 11:20:16;;;;;;;14.70;10.05;;;18.80;99.90;;;;;;5093750;28;20391;-77
2023/05/14 11:22:43;;;;;;;19.65;9.80;;;18.80;99.90;;;;;;5093753;28;20032;-78
2023/05/14 11:25:13;;;;;;;16.48;10.30;;;19.00;99.90;;;;;;5092186;28;20499;-78
2023/05/14 11:27:40;;;;;;;15.57;9.77;;;19.30;99.90;;;;;;5093613;28;20047;-80
2023/05/14 11:30:26;;;;;;;15.93;9.50;;;18.70;99.90;;;;;;5093645;28;20089;-76
2023/05/14 11:32:53;;;;;;;15.57;9.32;;;18.70;99.90;;;;;;5093905;28;20040;-77
2023/05/14 11:35:18;;;;;;;15.70;9.70;;;19.30;99.90;;;;;;5093605;28;20048;-78
2023/05/14 11:37:51;;;;;;;16.25;9.68;;;19.10;99.90;;;;;;5092276;28;20105;-76
2023/05/14 11:40:17;;;;;;;;;;;19.10;99.90;;;;;;5094112;28;20051;-77
2023/05/14 11:42:42;;;;;;;15.85;9.55;;;18.90;99.90;;;;;;5093634;28;19924;-77
2023/05/14 11:45:23;;;;;;;15.75;8.95;;;18.90;99.90;;;;;;5093576;28;20044;-77
2023/05/14 11:47:48;;;;;;;13.90;9.77;;;19.20;99.90;;;;;;5093709;28;20047;-77
2023/05/14 11:50:15;;;;;;;14.43;9.77;;;19.10;99.90;;;;;;5093324;28;20044;-78
2023/05/14 11:52:41;;;;;;;16.27;8.93;;;19.40;99.90;;;;;;5091979;28;20131;-77
2023/05/14 11:55:12;;;;;;;17.50;9.52;;;19.70;99.90;;;;;;5092300;28;20127;-84
2023/05/14 11:57:38;;;;;;;14.43;9.50;;;19.60;99.90;;;;;;5092883;28;20040;-84
2023/05/14 12:00:13;;;;;;;18.38;10.13;;;19.60;99.90;;;;;;5093285;28;20047;-84
2023/05/14 12:02:38;;;;;;;15.00;9.32;;;19.70;99.90;;;;;;5093333;28;20088;-85
2023/05/14 12:05:09;;;;;;;13.65;8.57;;;19.70;99.90;;;;;;5093401;28;20036;-83
2023/05/14 12:07:35;;;;;;;13.27;8.75;;;19.60;99.90;;;;;;5091891;28;20089;-83
2023/05/14 12:10:02;;;;;;;16.10;9.57;;;19.70;99.90;;;;;;5093289;28;20044;-83
2023/05/14 12:12:35;;;;;;;15.38;9.98;;;19.90;99.90;;;;;;5093439;28;20036;-80
2023/05/14 12:15:00;;;;;;;15.07;8.23;;;20.00;99.90;;;;;;5093179;28;20052;-83
2023/05/14 12:17:26;;;;;;;13.07;8.65;;;20.10;99.90;;;;;;5093072;28;20047;-83
2023/05/14 12:19:52;;;;;;;18.30;10.38;;;19.90;99.90;;;;;;5093414;28;20028;-82
2023/05/14 12:22:21;;;;;;;20.50;10.50;;;20.00;99.90;;;;;;5093367;28;20055;-83
2023/05/14 12:24:57;;;;;;;13.23;9.10;;;20.10;99.90;;;;;;5093088;28;20032;-83
2023/05/14 12:27:28;;;;;;;13.93;9.20;;;20.20;99.90;;;;;;5092998;28;20415;-84
2023/05/14 12:30:05;;;;;;;15.68;9.93;;;20.10;99.90;;;;;;5093031;28;20051;-83
2023/05/14 12:32:34;;;;;;;14.77;9.55;;;19.90;99.90;;;;;;5092141;28;20404;-83
2023/05/14 12:35:00;;;;;;;14.80;9.60;;;20.10;99.90;;;;;;5092032;28;20109;-83
2023/05/14 12:37:27;;;;;;;15.20;9.68;;;19.70;99.90;;;;;;5093086;28;20040;-82